createdAt,value
2022-09-11T00:05:31.099Z,11.289240506312973
2022-09-11T00:20:47.175Z,11.558805339458129
2022-09-11T00:36:03.048Z,11.407297318923387
2022-09-11T00:51:19.053Z,12.739432051769258
2022-09-11T01:06:36.070Z,12.650768375922036
2022-09-11T01:21:52.063Z,12.677663904067783
2022-09-11T01:37:09.042Z,12.80002175888295
2022-09-11T01:52:26.016Z,12.735430770635457
2022-09-11T02:07:42.877Z,12.639738345665714
2022-09-11T02:22:58.969Z,12.772461111435858
2022-09-11T02:38:14.923Z,12.127815628370085
2022-09-11T02:53:30.911Z,12.135712923037069
2022-09-11T03:08:47.878Z,12.023202320691627
2022-09-11T03:24:04.858Z,11.8958902623633
2022-09-11T03:39:21.825Z,11.85165382650421
2022-09-11T03:54:37.801Z,12.760896755259752
2022-09-11T04:09:54.780Z,12.790000000000001
2022-09-11T04:25:10.658Z,12.60347505886003
2022-09-11T04:40:26.657Z,12.214205195836287
2022-09-11T04:55:42.600Z,12.246954488664763
2022-09-11T05:10:59.614Z,12.386783150756443
2022-09-11T05:26:16.555Z,12.34
2022-09-11T05:41:33.560Z,12.26
2022-09-11T05:56:49.508Z,12.38
2022-09-11T06:12:06.577Z,11.773811914430388
2022-09-11T06:27:22.450Z,11.452189750535238
2022-09-11T06:42:38.528Z,11.590968970181189
2022-09-11T06:57:55.387Z,11.80255268196954
2022-09-11T07:13:13.391Z,11.402230672340279
2022-09-11T07:28:30.323Z,11.277099968716557
2022-09-11T07:43:46.414Z,11.31021431043459
2022-09-11T07:59:02.266Z,11.052555577326435
2022-09-11T08:14:19.332Z,10.832938625290486
2022-09-11T08:29:35.205Z,10.888292474285677
2022-09-11T08:30:16.171Z,10.888292474285677
2022-09-11T08:44:52.281Z,10.71308645183385
2022-09-11T09:00:04.469Z,10.919941437851964
2022-09-11T09:15:24.232Z,10.857122536068779
2022-09-11T09:30:39.176Z,10.951061696651315
2022-09-11T09:45:55.106Z,10.214704141760091
2022-09-11T10:01:15.307Z,10.630498183175208
2022-09-11T10:16:28.006Z,11.079084150455568
2022-09-11T10:31:44.047Z,10.84399502420454
2022-09-11T10:47:00.916Z,10.749623798844823
2022-09-11T11:02:18.918Z,10.573196286058298
2022-09-11T11:17:35.853Z,10.449267877039382
2022-09-11T11:32:51.810Z,10.80615363413136
2022-09-11T11:33:37.697Z,10.80615363413136
2022-09-11T11:48:09.787Z,9.936408705331353
2022-09-11T12:03:27.831Z,10.51562450073043
2022-09-11T12:18:44.864Z,11.051400770813592
2022-09-11T12:34:00.687Z,10.917984630406664
2022-09-11T12:49:22.599Z,10.70249256746805
2022-09-11T12:50:02.630Z,10.70249256746805
2022-09-11T13:04:35.611Z,11.537653210944104
2022-09-11T13:19:52.579Z,10.822727272196385
2022-09-11T13:35:08.545Z,11.192850977047568
2022-09-11T13:50:24.622Z,11.383272792943256
2022-09-11T14:05:42.492Z,11.107256040106806
2022-09-11T14:20:58.563Z,11.507147520843674
2022-09-11T14:36:15.416Z,11.811593572290377
2022-09-11T14:51:32.423Z,11.936085097116234
2022-09-11T15:06:49.398Z,12.339181555733502
2022-09-11T15:22:05.421Z,12.142825297622851
2022-09-11T15:37:21.393Z,12.98546655177218
2022-09-11T15:52:37.363Z,12.872089411895232
2022-09-11T16:07:54.513Z,12.65707416204863
2022-09-11T16:23:10.310Z,12.44247154967355
2022-09-11T16:38:27.273Z,12.429224106290452
2022-09-11T16:53:44.356Z,12.203407173272888
2022-09-11T17:09:03.210Z,12.098960314684298
2022-09-11T17:24:19.203Z,12.708829392546432
2022-09-11T17:39:35.084Z,13.337974583391658
2022-09-11T17:54:51.042Z,13.16430090336156
2022-09-11T18:10:08.015Z,13.129660941540987
2022-09-11T18:25:24.944Z,13.210263441911925
2022-09-11T18:40:42.018Z,13.136633103137914
2022-09-11T18:56:00.239Z,13.193748857329775
2022-09-11T19:11:15.955Z,13.208407752404588
2022-09-11T19:26:31.818Z,14.150195608694261
2022-09-11T19:41:47.891Z,13.435264403494548
2022-09-11T19:57:03.756Z,13.198832894105767
2022-09-11T20:12:20.865Z,13.29334868312407
2022-09-11T20:27:37.702Z,14.040594176116587
2022-09-11T20:42:54.713Z,14.288519894490213
2022-09-11T20:58:10.642Z,14.526569453470938
2022-09-11T21:13:27.710Z,14.649722172392218
2022-09-11T21:28:43.578Z,15.01693494842295
2022-09-11T21:43:59.676Z,14.98075824604794
2022-09-11T21:59:15.516Z,14.233058691586542
2022-09-11T22:14:35.592Z,14.600970975532375
2022-09-11T22:29:52.454Z,14.261480610054926
2022-09-11T22:45:08.447Z,14.6415447610824
2022-09-11T23:00:24.508Z,14.780810736495713
2022-09-11T23:15:41.372Z,15.172937778074411
2022-09-11T23:30:57.451Z,15.277510653037515
2022-09-11T23:46:13.308Z,15.273420477302604
